Time;durP1;ratioP1;P1;durP2;ratioP2;P2;SDS_P1;SDS_P2;PMS_P1;PMS_P2;Temp;Humidity;BMP_temperature;BMP_pressure;BME280_temperature;BME280_humidity;BME280_pressure;Samples;Min_cycle;Max_cycle;Signal;HPM_P1;HPM_P2
2021/10/13 00:02:00;;;;;;;17.80;11.05;;;7.10;54.20;;;;;;5071947;28;20045;-71
2021/10/13 00:04:28;;;;;;;17.05;10.15;;;7.00;54.10;;;;;;5075653;28;20040;-71
2021/10/13 00:06:56;;;;;;;22.67;10.73;;;7.00;54.00;;;;;;5073302;28;20128;-70
2021/10/13 00:09:32;;;;;;;15.63;10.48;;;7.00;54.10;;;;;;5073109;28;20118;-71
2021/10/13 00:12:06;;;;;;;21.42;10.70;;;7.00;54.00;;;;;;5074021;28;20109;-71
2021/10/13 00:14:42;;;;;;;20.90;12.13;;;7.00;54.10;;;;;;5057379;28;20044;-70
2021/10/13 00:17:14;;;;;;;18.25;10.77;;;6.90;54.00;;;;;;5080569;28;20065;-71
2021/10/13 00:19:42;;;;;;;22.30;12.23;;;6.90;54.10;;;;;;5083614;28;20063;-71
2021/10/13 00:22:10;;;;;;;21.30;11.73;;;6.80;54.20;;;;;;5074372;28;20056;-70
2021/10/13 00:24:38;;;;;;;20.75;11.85;;;6.80;54.60;;;;;;5081725;28;20041;-70
2021/10/13 00:27:09;;;;;;;22.65;12.77;;;6.80;54.80;;;;;;5078597;28;20507;-70
2021/10/13 00:29:38;;;;;;;23.35;13.23;;;6.80;55.50;;;;;;5079151;28;20044;-70
2021/10/13 00:32:07;;;;;;;25.10;13.95;;;6.80;55.10;;;;;;5080393;28;20075;-70
2021/10/13 00:34:36;;;;;;;22.02;13.70;;;6.80;55.40;;;;;;5075240;28;20049;-70
2021/10/13 00:37:08;;;;;;;21.77;13.60;;;6.80;55.40;;;;;;5075038;28;20036;-70
2021/10/13 00:39:36;;;;;;;25.25;13.82;;;6.70;55.30;;;;;;5085333;28;20066;-70
2021/10/13 00:42:04;;;;;;;27.08;14.95;;;6.70;55.60;;;;;;5071843;28;20044;-70
2021/10/13 00:44:34;;;;;;;26.88;14.43;;;6.80;55.80;;;;;;5081150;28;20525;-70
2021/10/13 00:47:06;;;;;;;27.42;14.50;;;6.90;55.80;;;;;;5076119;28;20072;-70
2021/10/13 00:49:38;;;;;;;23.27;14.48;;;6.90;55.80;;;;;;5074812;28;20047;-70
2021/10/13 00:52:07;;;;;;;24.92;14.60;;;6.90;55.80;;;;;;5081275;28;20063;-70
2021/10/13 00:54:36;;;;;;;24.25;14.30;;;6.90;55.80;;;;;;5075274;28;20131;-70
2021/10/13 00:57:04;;;;;;;22.98;14.35;;;6.90;55.80;;;;;;5072009;28;20469;-70
2021/10/13 00:59:32;;;;;;;26.15;14.20;;;6.80;55.80;;;;;;5081626;28;20051;-70
2021/10/13 01:02:08;;;;;;;23.77;14.15;;;6.90;55.80;;;;;;5073557;28;20094;-70
2021/10/13 01:04:50;;;;;;;23.55;12.93;;;6.90;55.90;;;;;;5075688;28;20072;-70
2021/10/13 01:07:29;;;;;;;24.83;13.95;;;6.80;55.70;;;;;;5081899;28;20044;-70
2021/10/13 01:10:02;;;;;;;23.65;13.77;;;6.80;55.80;;;;;;5080802;28;20099;-69
2021/10/13 01:12:41;;;;;;;21.17;13.27;;;6.80;55.80;;;;;;5066855;28;20507;-70
2021/10/13 01:15:21;;;;;;;20.25;13.27;;;6.80;55.70;;;;;;5076462;28;20040;-70
2021/10/13 01:18:04;;;;;;;22.90;13.27;;;6.70;55.50;;;;;;5078020;28;20036;-69
2021/10/13 01:20:58;;;;;;;22.15;13.40;;;6.70;55.60;;;;;;5070203;28;20506;-69
2021/10/13 01:23:41;;;;;;;26.90;13.20;;;6.70;55.70;;;;;;5077458;28;20051;-69
2021/10/13 01:26:19;;;;;;;24.50;13.68;;;6.70;55.70;;;;;;5073562;28;20040;-70
2021/10/13 01:28:57;;;;;;;23.00;14.38;;;6.80;55.80;;;;;;5076340;28;20044;-70
2021/10/13 01:31:29;;;;;;;26.40;14.63;;;6.80;55.70;;;;;;5076305;28;20071;-70
2021/10/13 01:34:01;;;;;;;31.02;16.10;;;6.80;55.60;;;;;;5059651;28;20135;-70
2021/10/13 01:36:31;;;;;;;26.60;15.10;;;6.80;55.70;;;;;;5070552;28;20056;-69
2021/10/13 01:39:03;;;;;;;27.27;15.60;;;6.80;55.70;;;;;;5082823;28;20440;-69
2021/10/13 01:41:35;;;;;;;27.42;14.85;;;6.90;55.80;;;;;;5076997;28;20290;-70
2021/10/13 01:44:11;;;;;;;23.17;14.70;;;6.80;54.80;;;;;;5074136;28;20052;-70
2021/10/13 01:46:40;;;;;;;24.55;13.77;;;6.80;55.10;;;;;;5082795;28;20041;-70
2021/10/13 01:49:09;;;;;;;23.92;13.55;;;6.90;55.30;;;;;;5080129;28;20119;-69
2021/10/13 01:51:39;;;;;;;21.60;13.75;;;6.80;54.50;;;;;;5079441;28;20127;-70
2021/10/13 01:54:07;;;;;;;22.05;13.63;;;6.80;54.90;;;;;;5082321;28;20052;-69
2021/10/13 01:56:38;;;;;;;21.45;13.50;;;6.80;54.80;;;;;;5073101;28;20118;-70
2021/10/13 01:59:10;;;;;;;22.00;13.35;;;6.90;54.80;;;;;;5082459;28;20127;-70
2021/10/13 02:01:40;;;;;;;21.25;12.82;;;7.00;55.30;;;;;;5082483;28;20051;-70
2021/10/13 02:04:10;;;;;;;22.90;13.80;;;6.90;54.40;;;;;;5071220;28;20044;-69
2021/10/13 02:06:42;;;;;;;22.30;14.75;;;6.90;54.80;;;;;;5074651;28;20068;-69
2021/10/13 02:09:11;;;;;;;24.70;14.18;;;7.00;54.70;;;;;;5083101;28;20139;-69
2021/10/13 02:11:41;;;;;;;19.58;13.20;;;6.90;53.60;;;;;;5076264;28;20044;-70
2021/10/13 02:14:13;;;;;;;21.75;13.73;;;6.90;53.90;;;;;;5074599;28;20461;-70
2021/10/13 02:16:49;;;;;;;24.08;14.27;;;6.90;54.40;;;;;;5078609;28;21206;-69
2021/10/13 02:19:20;;;;;;;22.05;12.98;;;6.90;53.00;;;;;;5074910;28;20098;-69
2021/10/13 02:21:53;;;;;;;22.17;13.15;;;6.80;53.60;;;;;;5076650;28;20105;-69
2021/10/13 02:24:25;;;;;;;22.23;12.57;;;6.90;53.70;;;;;;5083597;28;20085;-70
2021/10/13 02:26:59;;;;;;;19.90;12.77;;;6.90;53.70;;;;;;5075032;28;20059;-69
2021/10/13 02:29:28;;;;;;;22.10;13.55;;;6.80;53.40;;;;;;5081982;28;20101;-69
2021/10/13 02:31:59;;;;;;;21.05;13.18;;;6.80;53.90;;;;;;5079819;28;20043;-70
2021/10/13 02:34:27;;;;;;;23.83;12.77;;;6.90;54.10;;;;;;5077596;28;20126;-69
2021/10/13 02:36:59;;;;;;;21.55;13.65;;;6.80;53.70;;;;;;5080111;28;20499;-69
2021/10/13 02:39:29;;;;;;;19.85;12.88;;;6.90;54.30;;;;;;5079699;28;20080;-69
2021/10/13 02:41:57;;;;;;;20.77;13.32;;;6.90;54.10;;;;;;5077530;28;20095;-69
2021/10/13 02:44:28;;;;;;;19.13;12.80;;;6.80;54.20;;;;;;5084565;28;20055;-69
2021/10/13 02:47:00;;;;;;;20.10;12.40;;;6.90;54.70;;;;;;5076152;28;20448;-69
2021/10/13 02:49:43;;;;;;;20.77;12.68;;;6.90;54.30;;;;;;5079357;28;20056;-69
2021/10/13 02:52:22;;;;;;;22.52;13.20;;;7.00;54.90;;;;;;5079618;28;20109;-69
2021/10/13 02:54:59;;;;;;;21.85;12.68;;;6.90;54.30;;;;;;5083945;28;20116;-70
2021/10/13 02:57:36;;;;;;;21.20;12.10;;;6.80;53.80;;;;;;5075353;28;20036;-68
2021/10/13 03:00:08;;;;;;;21.95;13.02;;;6.90;54.60;;;;;;5086197;28;20087;-69
2021/10/13 03:02:44;;;;;;;20.80;12.40;;;6.80;54.10;;;;;;5079732;28;20055;-69
2021/10/13 03:05:14;;;;;;;21.40;12.57;;;6.80;54.10;;;;;;5076887;28;20048;-68
2021/10/13 03:07:46;;;;;;;22.27;13.02;;;6.90;54.80;;;;;;5086484;28;20098;-68
2021/10/13 03:10:16;;;;;;;21.52;12.10;;;6.90;54.40;;;;;;5072353;28;20048;-68
2021/10/13 03:12:52;;;;;;;22.35;13.18;;;6.80;54.20;;;;;;5064805;28;20443;-69
2021/10/13 03:15:25;;;;;;;20.48;11.98;;;6.90;55.00;;;;;;5076232;28;20036;-69
2021/10/13 03:17:59;;;;;;;29.08;14.85;;;6.80;54.00;;;;;;5071427;28;20089;-69
2021/10/13 03:20:29;;;;;;;22.83;13.20;;;6.80;54.60;;;;;;5070429;28;20044;-69
2021/10/13 03:23:01;;;;;;;25.60;14.10;;;6.80;54.80;;;;;;5073230;28;20056;-69
2021/10/13 03:25:34;;;;;;;25.35;14.85;;;6.70;54.70;;;;;;5069958;28;20068;-69
2021/10/13 03:28:04;;;;;;;24.65;14.43;;;6.80;55.20;;;;;;5071877;28;20500;-68
2021/10/13 03:30:39;;;;;;;29.10;15.35;;;6.80;55.00;;;;;;5070087;28;20388;-69
2021/10/13 03:33:07;;;;;;;30.17;16.58;;;6.80;54.50;;;;;;5066601;28;20056;-68
2021/10/13 03:35:35;;;;;;;28.40;15.40;;;6.80;54.90;;;;;;5073465;28;20404;-69
2021/10/13 03:38:05;;;;;;;35.78;15.30;;;6.70;54.60;;;;;;5073875;28;20127;-69
2021/10/13 03:40:38;;;;;;;28.77;15.77;;;6.80;55.00;;;;;;5073019;28;20147;-69
2021/10/13 03:43:11;;;;;;;31.88;15.75;;;6.70;53.90;;;;;;5067590;28;20045;-68
2021/10/13 03:45:40;;;;;;;27.65;14.50;;;6.70;54.00;;;;;;5069709;28;20076;-68
2021/10/13 03:48:10;;;;;;;30.80;14.85;;;6.60;53.80;;;;;;5070847;28;20465;-68
2021/10/13 03:50:43;;;;;;;25.65;14.60;;;6.60;54.00;;;;;;5074725;28;20044;-70
2021/10/13 03:53:16;;;;;;;25.27;14.32;;;6.60;53.80;;;;;;5065784;28;20052;-70
2021/10/13 03:55:44;;;;;;;25.90;14.32;;;6.50;54.20;;;;;;5070604;28;20044;-68
2021/10/13 03:58:15;;;;;;;29.08;15.68;;;6.50;54.90;;;;;;5074219;28;20108;-68
2021/10/13 04:00:49;;;;;;;30.17;15.90;;;6.40;54.80;;;;;;5070371;28;20051;-69
2021/10/13 04:03:19;;;;;;;31.90;16.33;;;6.30;54.80;;;;;;5067986;28;20418;-69
2021/10/13 04:05:47;;;;;;;29.98;16.35;;;6.30;55.40;;;;;;5074522;28;20052;-68
2021/10/13 04:08:16;;;;;;;34.13;17.70;;;6.40;55.40;;;;;;5067725;28;20068;-68
2021/10/13 04:10:47;;;;;;;38.88;17.98;;;6.40;55.40;;;;;;5067655;28;20048;-69
2021/10/13 04:13:16;;;;;;;36.05;16.73;;;6.30;55.50;;;;;;5069040;28;20094;-68
2021/10/13 04:15:44;;;;;;;36.75;18.10;;;6.30;55.70;;;;;;5075066;28;20043;-69
2021/10/13 04:18:14;;;;;;;35.25;18.00;;;6.30;55.90;;;;;;5071618;28;20051;-68
2021/10/13 04:20:46;;;;;;;36.40;18.58;;;6.20;56.10;;;;;;5075180;28;20054;-69
2021/10/13 04:23:22;;;;;;;43.92;19.60;;;6.30;56.50;;;;;;5064037;28;20404;-70
2021/10/13 04:25:51;;;;;;;42.88;19.48;;;6.40;56.80;;;;;;5070384;28;20117;-69
2021/10/13 04:28:23;;;;;;;42.25;19.00;;;6.40;56.90;;;;;;5067017;28;20036;-70
2021/10/13 04:30:51;;;;;;;36.38;17.60;;;6.40;57.00;;;;;;5070119;28;20048;-69
2021/10/13 04:33:23;;;;;;;39.78;18.75;;;6.30;56.90;;;;;;5067850;28;20056;-69
2021/10/13 04:35:59;;;;;;;42.88;19.30;;;6.30;56.80;;;;;;5070606;28;20067;-68
2021/10/13 04:38:29;;;;;;;44.72;20.13;;;6.30;56.80;;;;;;5072399;28;20048;-68
2021/10/13 04:41:03;;;;;;;36.97;18.27;;;6.30;57.00;;;;;;5070106;28;20051;-68
2021/10/13 04:43:31;;;;;;;40.58;18.45;;;6.40;57.20;;;;;;5064458;28;20072;-69
2021/10/13 04:45:59;;;;;;;34.58;17.85;;;6.40;57.10;;;;;;5069728;28;20558;-68
2021/10/13 04:48:28;;;;;;;38.42;17.75;;;6.30;56.70;;;;;;5071884;28;20406;-67
2021/10/13 04:50:56;;;;;;;38.42;18.05;;;6.20;56.60;;;;;;5065101;28;20236;-67
2021/10/13 04:53:26;;;;;;;39.28;18.27;;;6.30;57.00;;;;;;5061180;28;20121;-68
2021/10/13 04:55:59;;;;;;;36.75;18.10;;;6.30;56.90;;;;;;5066213;28;20106;-69
2021/10/13 04:58:29;;;;;;;35.10;18.55;;;6.20;56.70;;;;;;5071355;28;20040;-68
2021/10/13 05:00:57;;;;;;;39.70;19.25;;;6.20;56.80;;;;;;5072938;28;20452;-69
2021/10/13 05:03:27;;;;;;;40.88;18.77;;;6.30;57.00;;;;;;5070275;28;20047;-68
2021/10/13 05:05:55;;;;;;;37.10;18.27;;;6.30;57.00;;;;;;5068343;28;20036;-68
2021/10/13 05:08:28;;;;;;;42.45;19.95;;;6.40;57.00;;;;;;5072735;28;20128;-68
2021/10/13 05:10:57;;;;;;;37.38;18.80;;;6.30;56.70;;;;;;5065735;28;20043;-68
2021/10/13 05:13:25;;;;;;;34.25;16.83;;;6.40;56.90;;;;;;5060744;28;20745;-69
2021/10/13 05:15:54;;;;;;;37.53;18.63;;;6.40;56.90;;;;;;5072467;28;20115;-70
2021/10/13 05:18:22;;;;;;;34.35;17.25;;;6.40;56.80;;;;;;5071332;28;20506;-69
2021/10/13 05:20:54;;;;;;;33.85;17.38;;;6.30;55.90;;;;;;5067593;28;20043;-69
2021/10/13 05:23:22;;;;;;;35.20;17.08;;;6.40;56.60;;;;;;5061557;28;20040;-69
2021/10/13 05:25:50;;;;;;;38.17;17.55;;;6.40;56.30;;;;;;5069611;28;20039;-69
2021/10/13 05:28:18;;;;;;;35.50;16.90;;;6.40;56.60;;;;;;5067226;28;20056;-70
2021/10/13 05:30:47;;;;;;;31.40;16.42;;;6.40;56.00;;;;;;5068736;28;20059;-68
2021/10/13 05:33:15;;;;;;;36.20;16.58;;;6.40;55.80;;;;;;5068589;28;20051;-69
2021/10/13 05:35:43;;;;;;;32.83;17.23;;;6.40;56.10;;;;;;5068498;28;20131;-71
2021/10/13 05:38:12;;;;;;;34.75;16.77;;;6.50;56.10;;;;;;5073944;28;20047;-68
2021/10/13 05:40:43;;;;;;;31.30;15.88;;;6.50;55.70;;;;;;5069819;28;20492;-69
2021/10/13 05:43:11;;;;;;;34.80;16.88;;;6.50;55.80;;;;;;5070315;28;20091;-69
2021/10/13 05:45:40;;;;;;;35.42;17.95;;;6.50;55.70;;;;;;5064092;28;20130;-67
2021/10/13 05:48:11;;;;;;;34.97;16.40;;;6.50;56.10;;;;;;5065292;28;20342;-69
2021/10/13 05:50:39;;;;;;;33.67;16.95;;;6.60;55.50;;;;;;5072189;28;20048;-70
2021/10/13 05:53:11;;;;;;;29.40;15.52;;;6.60;55.50;;;;;;5063855;28;20044;-69
2021/10/13 05:55:45;;;;;;;;;;;6.60;54.00;;;;;;5071281;28;20056;-70
2021/10/13 05:58:18;;;;;;;30.42;15.65;;;6.60;54.60;;;;;;5070281;28;19986;-69
2021/10/13 06:00:47;;;;;;;33.42;16.17;;;6.70;54.70;;;;;;5064729;28;20144;-69
2021/10/13 06:03:16;;;;;;;36.15;17.52;;;6.60;53.40;;;;;;5067624;28;20101;-69
2021/10/13 06:05:46;;;;;;;38.75;17.67;;;6.70;53.80;;;;;;5072164;28;20075;-69
2021/10/13 06:08:16;;;;;;;34.25;17.13;;;6.80;54.30;;;;;;5073804;28;20045;-70
2021/10/13 06:10:44;;;;;;;33.70;17.95;;;6.80;53.90;;;;;;5073454;28;20441;-70
2021/10/13 06:13:13;;;;;;;32.42;16.92;;;6.60;52.00;;;;;;5071138;28;20044;-72
2021/10/13 06:15:46;;;;;;;31.67;17.45;;;6.80;54.00;;;;;;5071901;28;20087;-69
2021/10/13 06:18:18;;;;;;;35.28;16.75;;;6.80;53.90;;;;;;5076407;28;20415;-69
2021/10/13 06:20:51;;;;;;;30.88;16.92;;;6.90;53.80;;;;;;5066997;28;20064;-68
2021/10/13 06:23:23;;;;;;;33.45;17.20;;;6.80;53.40;;;;;;5070055;28;20070;-70
2021/10/13 06:25:54;;;;;;;29.88;15.95;;;6.80;52.70;;;;;;5076748;28;20500;-70
2021/10/13 06:28:24;;;;;;;30.48;16.45;;;6.90;53.60;;;;;;5073512;28;20094;-70
2021/10/13 06:30:57;;;;;;;26.92;15.02;;;6.90;52.20;;;;;;5070312;28;20076;-70
2021/10/13 06:33:27;;;;;;;32.13;16.45;;;6.90;51.90;;;;;;5066063;28;20512;-69
2021/10/13 06:35:56;;;;;;;28.35;14.68;;;6.90;52.80;;;;;;5073355;28;20108;-69
2021/10/13 06:38:26;;;;;;;31.23;14.63;;;6.80;50.70;;;;;;5072155;28;20118;-69
2021/10/13 06:40:55;;;;;;;24.83;14.10;;;6.90;51.80;;;;;;5072185;28;20037;-69
2021/10/13 06:43:23;;;;;;;27.38;14.68;;;7.10;52.10;;;;;;5066667;28;20127;-69
2021/10/13 06:45:52;;;;;;;28.30;14.23;;;7.00;50.70;;;;;;5071672;28;20055;-68
2021/10/13 06:48:21;;;;;;;34.95;14.98;;;6.90;51.70;;;;;;5072581;28;20411;-70
2021/10/13 06:50:51;;;;;;;27.55;15.25;;;6.90;51.30;;;;;;5071660;28;20521;-69
2021/10/13 06:53:19;;;;;;;26.42;14.65;;;6.90;52.50;;;;;;5067807;28;20174;-70
2021/10/13 06:55:48;;;;;;;27.77;14.45;;;6.90;51.20;;;;;;5071810;28;20075;-70
2021/10/13 06:58:18;;;;;;;32.65;16.38;;;6.90;49.90;;;;;;5069331;28;20443;-69
2021/10/13 07:00:46;;;;;;;25.13;13.80;;;7.10;52.00;;;;;;5071474;28;20078;-70
2021/10/13 07:03:14;;;;;;;28.80;14.65;;;7.00;50.50;;;;;;5067636;28;20064;-69
2021/10/13 07:05:43;;;;;;;32.05;16.15;;;7.10;51.90;;;;;;5071380;28;20040;-68
2021/10/13 07:08:14;;;;;;;29.38;15.57;;;7.30;52.00;;;;;;5071965;28;20037;-69
2021/10/13 07:10:43;;;;;;;30.35;15.90;;;7.30;50.30;;;;;;5069518;28;20062;-69
2021/10/13 07:13:17;;;;;;;34.97;15.73;;;7.40;51.20;;;;;;5065072;28;20498;-69
2021/10/13 07:15:45;;;;;;;26.60;15.10;;;7.40;50.60;;;;;;5069674;28;20048;-69
2021/10/13 07:18:13;;;;;;;26.80;14.82;;;7.20;49.00;;;;;;5070600;28;20036;-69
2021/10/13 07:20:44;;;;;;;30.75;16.15;;;7.20;49.50;;;;;;5075074;28;20070;-69
2021/10/13 07:23:15;;;;;;;29.27;15.05;;;7.20;52.10;;;;;;5063023;28;20053;-69
2021/10/13 07:25:45;;;;;;;29.92;16.30;;;7.30;52.10;;;;;;5067138;28;20055;-68
2021/10/13 07:28:17;;;;;;;27.30;16.42;;;7.40;52.10;;;;;;5072027;28;20041;-69
2021/10/13 07:30:45;;;;;;;31.10;16.02;;;7.40;51.50;;;;;;5066101;28;20066;-69
2021/10/13 07:33:15;;;;;;;28.83;14.35;;;7.50;52.30;;;;;;5067055;28;20039;-69
2021/10/13 07:35:44;;;;;;;25.85;14.77;;;7.40;49.20;;;;;;5073549;28;20070;-69
2021/10/13 07:38:12;;;;;;;29.85;13.77;;;7.30;48.10;;;;;;5070487;28;20079;-69
2021/10/13 07:40:43;;;;;;;27.35;14.48;;;7.30;48.70;;;;;;5068908;28;20126;-69
2021/10/13 07:43:17;;;;;;;31.75;15.30;;;7.40;49.30;;;;;;5065422;28;20048;-69
2021/10/13 07:45:48;;;;;;;28.10;14.27;;;7.50;49.70;;;;;;5068443;28;20056;-69
2021/10/13 07:48:20;;;;;;;29.45;15.27;;;7.50;47.80;;;;;;5066701;28;20049;-68
2021/10/13 07:50:55;;;;;;;28.17;15.07;;;7.60;48.20;;;;;;5069982;28;20040;-69
2021/10/13 07:53:23;;;;;;;28.90;14.98;;;7.60;48.20;;;;;;5067207;28;20048;-70
2021/10/13 07:55:51;;;;;;;27.67;15.57;;;7.60;47.00;;;;;;5069746;28;20044;-69
2021/10/13 07:58:21;;;;;;;28.63;16.90;;;7.70;46.00;;;;;;5070059;28;20086;-68
2021/10/13 08:00:55;;;;;;;30.55;16.83;;;7.90;46.40;;;;;;5067164;28;20496;-67
2021/10/13 08:03:23;;;;;;;32.30;16.40;;;7.80;46.00;;;;;;5067750;28;20059;-68
2021/10/13 08:05:52;;;;;;;36.08;17.48;;;8.00;46.60;;;;;;5072375;28;20093;-68
2021/10/13 08:08:22;;;;;;;39.15;18.48;;;7.90;44.50;;;;;;5068368;28;20492;-69
2021/10/13 08:10:50;;;;;;;38.40;19.23;;;7.90;45.40;;;;;;5067801;28;20118;-69
2021/10/13 08:13:18;;;;;;;35.15;18.33;;;8.00;46.40;;;;;;5065086;28;20110;-70
2021/10/13 08:15:48;;;;;;;36.50;18.42;;;8.10;45.80;;;;;;5065723;28;20479;-69
2021/10/13 08:18:18;;;;;;;36.28;18.88;;;7.90;42.60;;;;;;5069139;28;20044;-69
2021/10/13 08:20:46;;;;;;;32.88;16.30;;;7.70;45.80;;;;;;5068258;28;20040;-70
2021/10/13 08:23:15;;;;;;;37.42;17.42;;;7.60;44.30;;;;;;5063107;28;20523;-70
2021/10/13 08:25:43;;;;;;;40.33;18.70;;;7.90;46.30;;;;;;5064482;28;20044;-69
2021/10/13 08:28:15;;;;;;;39.20;17.98;;;8.00;46.00;;;;;;5069048;28;20135;-69
2021/10/13 08:30:43;;;;;;;40.65;19.60;;;8.00;43.20;;;;;;5060703;28;23673;-69
2021/10/13 08:33:12;;;;;;;42.10;19.60;;;8.00;44.70;;;;;;5066658;28;20135;-69
2021/10/13 08:35:44;;;;;;;32.97;17.27;;;8.10;44.80;;;;;;5067126;28;20067;-69
2021/10/13 08:38:18;;;;;;;38.85;18.77;;;8.10;42.10;;;;;;5063713;28;20801;-70
2021/10/13 08:40:50;;;;;;;38.17;18.45;;;8.20;42.20;;;;;;5070760;28;20536;-69
2021/10/13 08:43:18;;;;;;;37.88;17.98;;;8.40;44.00;;;;;;5062666;28;20123;-69
2021/10/13 08:45:46;;;;;;;34.67;18.02;;;8.20;36.50;;;;;;5070688;28;20293;-69
2021/10/13 08:48:16;;;;;;;38.97;18.67;;;8.20;39.60;;;;;;5068922;28;20574;-70
2021/10/13 08:50:46;;;;;;;40.60;19.88;;;8.30;42.40;;;;;;5064454;28;20072;-70
2021/10/13 08:53:16;;;;;;;38.40;19.65;;;8.60;44.50;;;;;;5065114;28;20056;-70
2021/10/13 08:55:46;;;;;;;38.13;19.45;;;8.70;42.90;;;;;;5069101;28;20088;-70
2021/10/13 08:58:22;;;;;;;41.03;19.67;;;8.70;39.90;;;;;;5069995;28;20055;-70
2021/10/13 09:01:12;;;;;;;37.75;19.42;;;8.90;39.90;;;;;;5065830;28;20056;-68
2021/10/13 09:03:45;;;;;;;36.30;18.80;;;9.10;38.50;;;;;;5070629;28;20139;-70
2021/10/13 09:06:19;;;;;;;36.40;18.20;;;9.10;37.20;;;;;;5057603;28;20044;-70
2021/10/13 09:08:56;;;;;;;32.90;17.15;;;9.20;35.90;;;;;;5069708;28;20049;-70
2021/10/13 09:11:36;;;;;;;33.28;16.50;;;8.90;33.80;;;;;;5064589;28;20045;-70
2021/10/13 09:14:11;;;;;;;33.08;18.10;;;8.60;37.60;;;;;;5063098;28;20135;-70
2021/10/13 09:16:48;;;;;;;36.50;17.08;;;8.60;37.00;;;;;;5070214;28;20606;-70
2021/10/13 09:19:23;;;;;;;32.95;17.00;;;8.80;39.20;;;;;;5064804;28;20496;-69
2021/10/13 09:21:53;;;;;;;34.45;18.85;;;8.80;36.20;;;;;;5064693;28;20135;-69
2021/10/13 09:24:27;;;;;;;36.22;18.45;;;8.80;40.50;;;;;;5066198;28;20605;-69
2021/10/13 09:26:56;;;;;;;30.73;17.30;;;9.00;39.80;;;;;;5069472;28;20198;-70
2021/10/13 09:29:26;;;;;;;30.52;17.70;;;8.90;31.90;;;;;;5067857;28;20071;-69
2021/10/13 09:32:02;;;;;;;32.38;16.38;;;8.80;30.70;;;;;;5072694;28;20076;-69
2021/10/13 09:34:32;;;;;;;31.63;17.00;;;8.90;35.20;;;;;;5067480;28;20045;-69
2021/10/13 09:37:01;;;;;;;31.45;16.30;;;8.90;33.50;;;;;;5068990;28;20048;-70
2021/10/13 09:39:31;;;;;;;30.88;16.17;;;8.90;32.80;;;;;;5066770;28;20056;-70
2021/10/13 09:42:06;;;;;;;28.45;16.40;;;9.10;35.40;;;;;;5066559;28;20112;-69
2021/10/13 09:44:40;;;;;;;22.75;14.45;;;9.30;35.00;;;;;;5069452;28;20045;-67
2021/10/13 09:47:10;;;;;;;24.45;14.25;;;9.10;29.30;;;;;;5068442;28;20578;-69
2021/10/13 09:49:41;;;;;;;26.33;12.85;;;9.00;29.00;;;;;;5066088;28;20315;-70
2021/10/13 09:52:18;;;;;;;26.38;14.02;;;9.10;22.70;;;;;;5065377;28;20037;-70
2021/10/13 09:54:58;;;;;;;25.67;13.52;;;9.40;25.80;;;;;;5068689;28;20373;-69
2021/10/13 09:57:33;;;;;;;20.42;13.15;;;9.70;25.70;;;;;;5067287;28;20041;-69
2021/10/13 10:00:12;;;;;;;24.92;14.00;;;9.30;21.20;;;;;;5069855;28;20045;-68
2021/10/13 10:02:46;;;;;;;23.15;14.02;;;9.50;26.00;;;;;;5066555;28;20128;-69
2021/10/13 10:05:17;;;;;;;28.25;14.57;;;9.40;27.60;;;;;;5069140;28;20044;-69
2021/10/13 10:08:00;;;;;;;25.10;14.57;;;8.90;26.10;;;;;;5068368;28;20595;-69
2021/10/13 10:10:28;;;;;;;25.10;13.27;;;9.10;29.60;;;;;;5074737;28;20109;-70
2021/10/13 10:13:06;;;;;;;26.17;14.05;;;9.00;27.90;;;;;;5065998;28;20524;-70
2021/10/13 10:15:37;;;;;;;21.63;12.68;;;9.10;29.10;;;;;;5068325;28;20090;-69
2021/10/13 10:18:30;;;;;;;22.55;13.32;;;9.00;27.60;;;;;;5064928;28;20045;-69
2021/10/13 10:21:24;;;;;;;22.02;13.82;;;9.10;29.00;;;;;;5071587;28;20041;-68
2021/10/13 10:23:53;;;;;;;22.63;14.05;;;9.30;29.20;;;;;;5059836;28;20139;-69
2021/10/13 10:26:33;;;;;;;20.27;12.95;;;9.40;27.30;;;;;;5068930;28;20040;-69
2021/10/13 10:29:14;;;;;;;17.35;11.65;;;9.30;20.70;;;;;;5064874;28;20029;-69
2021/10/13 10:31:44;;;;;;;18.98;12.07;;;9.10;23.00;;;;;;5065673;28;20087;-69
2021/10/13 10:34:15;;;;;;;18.90;11.07;;;9.30;25.50;;;;;;5065585;28;20045;-68
2021/10/13 10:37:11;;;;;;;14.27;8.90;;;9.70;23.70;;;;;;5068463;28;20044;-67
2021/10/13 10:40:00;;;;;;;17.52;10.35;;;9.40;18.30;;;;;;5062975;28;20094;-68
2021/10/13 10:42:51;;;;;;;16.73;10.85;;;9.80;20.50;;;;;;5064433;28;20062;-68
2021/10/13 10:45:23;;;;;;;19.88;9.88;;;9.70;17.10;;;;;;5068230;28;20043;-69
2021/10/13 10:47:55;;;;;;;12.90;9.57;;;9.90;18.20;;;;;;5067880;28;20072;-69
2021/10/13 10:50:41;;;;;;;15.73;10.15;;;10.30;16.50;;;;;;5070696;28;20056;-69
2021/10/13 10:53:30;;;;;;;17.20;10.00;;;10.30;11.70;;;;;;5069249;28;20037;-68
2021/10/13 10:56:18;;;;;;;11.48;8.50;;;10.30;15.80;;;;;;5068623;28;20414;-68
2021/10/13 10:59:05;;;;;;;15.07;8.15;;;10.80;12.90;;;;;;5071315;28;20059;-68
2021/10/13 11:01:37;;;;;;;11.48;8.43;;;10.70;12.80;;;;;;5068210;28;20137;-69
2021/10/13 11:04:11;;;;;;;14.30;8.82;;;10.40;13.30;;;;;;5069239;28;21055;-68
2021/10/13 11:06:49;;;;;;;16.15;8.55;;;10.30;15.20;;;;;;5069050;28;20048;-68
2021/10/13 11:09:24;;;;;;;15.77;9.32;;;10.20;16.00;;;;;;5070727;28;20086;-68
2021/10/13 11:11:57;;;;;;;18.50;9.65;;;10.40;16.50;;;;;;5069885;28;20032;-68
2021/10/13 11:14:30;;;;;;;15.75;9.82;;;10.10;19.00;;;;;;5072004;28;20840;-68
2021/10/13 11:17:03;;;;;;;14.45;9.63;;;10.10;19.30;;;;;;5067990;28;20048;-69
2021/10/13 11:19:34;;;;;;;15.40;9.32;;;10.20;21.60;;;;;;5067160;28;20045;-70
2021/10/13 11:22:12;;;;;;;12.20;8.48;;;10.10;18.30;;;;;;5066338;28;20044;-68
2021/10/13 11:24:47;;;;;;;10.40;7.70;;;10.20;18.00;;;;;;5066556;28;20079;-69
2021/10/13 11:27:24;;;;;;;9.90;6.68;;;10.40;13.90;;;;;;5069083;28;20372;-68
2021/10/13 11:29:53;;;;;;;6.97;4.28;;;10.70;14.30;;;;;;5068028;28;20040;-69
2021/10/13 11:32:23;;;;;;;5.60;3.58;;;10.30;4.40;;;;;;5068033;28;20144;-68
2021/10/13 11:35:01;;;;;;;5.28;3.92;;;10.50;5.50;;;;;;5072302;28;20080;-69
2021/10/13 11:37:30;;;;;;;4.85;3.75;;;10.80;7.00;;;;;;5072604;28;20048;-69
2021/10/13 11:40:02;;;;;;;7.68;4.28;;;11.20;5.90;;;;;;5070061;28;20144;-69
2021/10/13 11:42:32;;;;;;;7.32;4.70;;;10.90;6.90;;;;;;5069680;28;20486;-69
2021/10/13 11:45:01;;;;;;;11.50;5.63;;;11.20;6.60;;;;;;5066377;28;20059;-69
2021/10/13 11:47:30;;;;;;;6.00;4.70;;;10.90;8.10;;;;;;5074759;28;20572;-69
2021/10/13 11:50:00;;;;;;;6.05;4.25;;;10.80;7.60;;;;;;5067707;28;20059;-69
2021/10/13 11:52:31;;;;;;;5.32;3.22;;;10.70;5.30;;;;;;5067477;28;20048;-69
2021/10/13 11:55:05;;;;;;;4.18;2.63;;;10.40;11.70;;;;;;5065702;28;20055;-68
2021/10/13 11:57:33;;;;;;;5.32;3.40;;;10.20;8.10;;;;;;5070626;28;20302;-69
2021/10/13 12:00:17;;;;;;;4.95;4.03;;;10.00;11.40;;;;;;5070640;28;20048;-69
2021/10/13 12:03:03;;;;;;;5.78;3.88;;;10.00;14.40;;;;;;5063510;28;20068;-69
2021/10/13 12:05:36;;;;;;;7.22;4.28;;;9.90;14.00;;;;;;5072045;28;20044;-69
2021/10/13 12:08:08;;;;;;;7.05;3.90;;;9.90;17.50;;;;;;5073287;28;20460;-69
2021/10/13 12:10:44;;;;;;;4.97;3.80;;;9.90;17.60;;;;;;5070811;28;20068;-69
2021/10/13 12:13:15;;;;;;;6.72;3.95;;;9.90;17.80;;;;;;5072133;28;20052;-69
2021/10/13 12:15:45;;;;;;;6.32;4.03;;;10.00;15.00;;;;;;5067966;28;20049;-69
2021/10/13 12:18:21;;;;;;;6.85;4.40;;;9.90;15.70;;;;;;5071409;28;20057;-68
2021/10/13 12:20:53;;;;;;;7.88;4.10;;;9.80;19.20;;;;;;5069397;28;20636;-69
2021/10/13 12:23:24;;;;;;;9.57;4.32;;;9.70;17.70;;;;;;5067753;28;20051;-68
2021/10/13 12:25:53;;;;;;;5.78;3.95;;;9.80;20.10;;;;;;5071334;28;20041;-68
2021/10/13 12:28:24;;;;;;;7.20;3.78;;;9.80;19.20;;;;;;5070393;28;20135;-68
2021/10/13 12:31:01;;;;;;;4.22;3.83;;;9.90;17.00;;;;;;5071450;28;20063;-70
2021/10/13 12:33:40;;;;;;;5.78;4.07;;;9.80;14.40;;;;;;5067713;28;20055;-68
2021/10/13 12:36:16;;;;;;;4.53;3.78;;;10.30;15.20;;;;;;5069626;28;20127;-67
2021/10/13 12:38:50;;;;;;;4.95;4.13;;;10.60;14.80;;;;;;5067501;28;20048;-67
2021/10/13 12:41:19;;;;;;;8.68;4.70;;;10.70;11.70;;;;;;5069769;28;20040;-69
2021/10/13 12:43:51;;;;;;;9.93;5.07;;;10.60;10.60;;;;;;5068496;28;20037;-69
2021/10/13 12:46:24;;;;;;;7.75;3.80;;;10.80;11.90;;;;;;5066447;28;20573;-69
2021/10/13 12:48:53;;;;;;;6.40;3.55;;;11.10;8.20;;;;;;5069888;28;20074;-69
2021/10/13 12:51:48;;;;;;;5.82;3.90;;;11.20;6.00;;;;;;5070276;28;20094;-69
2021/10/13 12:54:16;;;;;;;4.47;3.55;;;11.30;5.00;;;;;;5067412;28;20058;-68
2021/10/13 12:56:46;;;;;;;4.75;3.35;;;11.60;7.60;;;;;;5068791;28;20040;-69
2021/10/13 12:59:17;;;;;;;4.32;3.05;;;11.50;3.60;;;;;;5070624;28;20067;-69
2021/10/13 13:01:46;;;;;;;4.47;2.80;;;11.30;4.70;;;;;;5063492;28;20086;-69
2021/10/13 13:04:14;;;;;;;4.93;3.15;;;10.80;3.70;;;;;;5062507;28;20055;-68